createdAt,value
2023-02-16T00:01:19.991Z,82.63
2023-02-16T00:03:47.856Z,82.45
2023-02-16T00:06:16.256Z,82.58
2023-02-16T00:08:47.100Z,83.47
2023-02-16T00:11:46.835Z,83.60
2023-02-16T00:14:15.336Z,83.03
2023-02-16T00:16:43.311Z,83.01
2023-02-16T00:19:20.309Z,82.66
2023-02-16T00:21:48.780Z,82.41
2023-02-16T00:24:18.007Z,82.08
2023-02-16T00:26:47.727Z,82.82
2023-02-16T00:29:21.622Z,83.76
2023-02-16T00:31:50.545Z,83.30
2023-02-16T00:34:33.751Z,82.02
2023-02-16T00:37:02.957Z,82.43
2023-02-16T00:39:32.696Z,82.56
2023-02-16T00:42:03.048Z,82.58
2023-02-16T00:44:34.013Z,82.29
2023-02-16T00:47:04.186Z,81.74
2023-02-16T00:49:31.905Z,81.07
2023-02-16T00:51:59.723Z,81.94
2023-02-16T00:54:27.462Z,82.35
2023-02-16T00:56:56.440Z,81.48
2023-02-16T00:59:24.514Z,82.99
2023-02-16T01:01:52.430Z,83.05
2023-02-16T01:04:23.297Z,82.24
2023-02-16T01:07:08.646Z,82.62
2023-02-16T01:09:53.994Z,83.35
2023-02-16T01:12:23.447Z,84.01
2023-02-16T01:14:55.051Z,84.17
2023-02-16T01:17:23.302Z,83.88
2023-02-16T01:19:50.990Z,82.99
2023-02-16T01:22:18.625Z,82.85
2023-02-16T01:24:46.342Z,83.95
2023-02-16T01:27:14.791Z,83.72
2023-02-16T01:29:43.772Z,83.25
2023-02-16T01:32:13.165Z,83.58
2023-02-16T01:34:40.980Z,83.48
2023-02-16T01:37:15.336Z,83.46
2023-02-16T01:39:43.258Z,82.41
2023-02-16T01:42:20.869Z,82.45
2023-02-16T01:44:52.302Z,82.99
2023-02-16T01:47:33.436Z,83.54
2023-02-16T01:50:03.552Z,82.79
2023-02-16T01:52:35.361Z,83.23
2023-02-16T01:55:09.005Z,83.66
2023-02-16T01:57:42.789Z,84.32
2023-02-16T02:00:23.304Z,84.96
2023-02-16T02:03:15.832Z,82.90
2023-02-16T02:05:43.000Z,81.27
2023-02-16T02:08:17.855Z,82.80
2023-02-16T02:10:56.080Z,82.46
2023-02-16T02:13:30.088Z,82.46
2023-02-16T02:16:01.014Z,82.44
2023-02-16T02:18:28.793Z,82.09
2023-02-16T02:21:35.372Z,81.85
2023-02-16T02:24:30.068Z,82.59
2023-02-16T02:27:10.815Z,81.94
2023-02-16T02:30:16.893Z,81.46
2023-02-16T02:32:56.342Z,82.47
2023-02-16T02:35:33.536Z,82.95
2023-02-16T02:38:11.530Z,82.19
2023-02-16T02:40:49.100Z,81.44
2023-02-16T02:43:24.281Z,81.24
2023-02-16T02:45:57.155Z,81.49
2023-02-16T02:48:24.937Z,82.41
2023-02-16T02:51:12.467Z,80.98
2023-02-16T02:53:44.798Z,81.54
2023-02-16T02:56:33.012Z,81.33
2023-02-16T02:59:25.842Z,80.14
2023-02-16T03:01:57.877Z,79.60
2023-02-16T03:04:30.053Z,81.11
2023-02-16T03:06:59.421Z,83.14
2023-02-16T03:09:27.610Z,83.07
2023-02-16T03:12:15.237Z,83.21
2023-02-16T03:14:48.148Z,82.76
2023-02-16T03:17:36.737Z,82.97
2023-02-16T03:20:25.058Z,84.25
2023-02-16T03:23:10.495Z,84.51
2023-02-16T03:25:57.694Z,84.40
2023-02-16T03:28:45.956Z,83.07
2023-02-16T03:31:21.058Z,82.69
2023-02-16T03:33:54.513Z,82.55
2023-02-16T03:36:22.854Z,82.28
2023-02-16T03:38:50.895Z,81.55
2023-02-16T03:41:18.529Z,80.77
2023-02-16T03:43:46.172Z,79.97
2023-02-16T03:46:15.240Z,80.24
2023-02-16T03:48:43.029Z,81.07
2023-02-16T03:51:10.694Z,81.88
2023-02-16T03:53:38.247Z,81.83
2023-02-16T03:56:06.275Z,81.56
2023-02-16T03:58:33.966Z,81.12
2023-02-16T04:01:02.454Z,81.68
2023-02-16T04:03:31.730Z,80.47
2023-02-16T04:06:01.334Z,81.10
2023-02-16T04:08:29.244Z,81.21
2023-02-16T04:10:57.526Z,81.38
2023-02-16T04:13:24.470Z,81.54
2023-02-16T04:15:53.677Z,83.25
2023-02-16T04:18:21.384Z,82.42
2023-02-16T04:20:50.521Z,83.59
2023-02-16T04:23:18.111Z,83.71
2023-02-16T04:25:45.758Z,84.49
2023-02-16T04:28:15.865Z,84.55
2023-02-16T04:30:43.596Z,83.62
2023-02-16T04:33:11.288Z,83.25
2023-02-16T04:35:41.597Z,82.69
2023-02-16T04:38:10.588Z,82.12
2023-02-16T04:40:38.217Z,81.98
2023-02-16T04:43:05.914Z,82.03
2023-02-16T04:45:33.660Z,81.83
2023-02-16T04:48:01.379Z,83.16
2023-02-16T04:50:29.081Z,84.01
2023-02-16T04:52:56.706Z,84.77
2023-02-16T04:55:25.839Z,84.37
2023-02-16T04:57:53.446Z,84.72
2023-02-16T05:00:21.703Z,84.62
2023-02-16T05:02:49.431Z,84.20
2023-02-16T05:05:17.144Z,84.62
2023-02-16T05:07:44.799Z,84.29
2023-02-16T05:10:12.524Z,84.59
2023-02-16T05:12:59.207Z,84.67
2023-02-16T05:15:26.857Z,85.98
2023-02-16T05:17:54.456Z,86.58
2023-02-16T05:20:42.365Z,86.79
2023-02-16T05:23:10.024Z,85.46
2023-02-16T05:25:37.695Z,85.10
2023-02-16T05:28:06.906Z,85.96
2023-02-16T05:30:34.733Z,84.70
2023-02-16T05:33:02.517Z,84.22
2023-02-16T05:35:30.229Z,84.94
2023-02-16T05:37:57.839Z,85.00
2023-02-16T05:40:25.565Z,84.21
2023-02-16T05:42:54.326Z,82.91
2023-02-16T05:45:23.392Z,81.93
2023-02-16T05:47:53.160Z,81.32
2023-02-16T05:50:20.903Z,81.20
2023-02-16T05:52:48.568Z,80.50
2023-02-16T05:55:16.364Z,80.28
2023-02-16T05:57:44.169Z,81.05
2023-02-16T06:00:13.250Z,82.02
2023-02-16T06:02:42.323Z,82.20
2023-02-16T06:05:10.077Z,82.12
2023-02-16T06:07:37.710Z,82.05
2023-02-16T06:10:06.024Z,82.72
2023-02-16T06:12:34.604Z,82.28
2023-02-16T06:15:02.372Z,83.05
2023-02-16T06:17:30.084Z,83.17
2023-02-16T06:19:59.168Z,82.02
2023-02-16T06:22:26.953Z,80.63
2023-02-16T06:24:54.531Z,80.11
2023-02-16T06:27:22.367Z,79.76
2023-02-16T06:29:50.019Z,80.54
2023-02-16T06:32:18.271Z,81.54
2023-02-16T06:34:46.207Z,81.74
2023-02-16T06:37:15.222Z,81.47
2023-02-16T06:39:42.866Z,80.62
2023-02-16T06:42:10.609Z,80.75
2023-02-16T06:44:39.508Z,79.59
2023-02-16T06:47:07.212Z,81.48
2023-02-16T06:49:34.934Z,82.00
2023-02-16T06:52:02.831Z,82.87
2023-02-16T06:54:31.923Z,83.35
2023-02-16T06:56:59.573Z,84.09
2023-02-16T06:59:27.230Z,83.61
2023-02-16T07:01:54.883Z,83.56
2023-02-16T07:04:22.609Z,83.05
2023-02-16T07:06:50.270Z,81.73
2023-02-16T07:09:18.293Z,82.12
2023-02-16T07:11:47.279Z,82.30
2023-02-16T07:14:15.878Z,82.04
2023-02-16T07:16:43.521Z,80.80
2023-02-16T07:19:11.187Z,81.65
2023-02-16T07:21:38.972Z,82.07
2023-02-16T07:24:07.331Z,82.82
2023-02-16T07:26:35.099Z,83.22
2023-02-16T07:29:04.102Z,82.83
2023-02-16T07:31:31.958Z,83.52
2023-02-16T07:33:59.633Z,83.60
2023-02-16T07:36:27.453Z,83.60
2023-02-16T07:38:55.084Z,83.89
2023-02-16T07:41:22.927Z,83.46
2023-02-16T07:43:50.606Z,83.59
2023-02-16T07:46:19.644Z,83.49
2023-02-16T07:48:48.775Z,83.36
2023-02-16T07:51:22.156Z,82.73
2023-02-16T07:53:49.787Z,81.83
2023-02-16T07:56:24.576Z,81.12
2023-02-16T07:58:53.176Z,81.07
2023-02-16T08:01:22.851Z,81.06
2023-02-16T08:03:50.834Z,81.95
2023-02-16T08:06:19.222Z,82.33
2023-02-16T08:08:47.374Z,82.57
2023-02-16T08:11:17.641Z,81.81
2023-02-16T08:13:45.496Z,82.04
2023-02-16T08:16:16.015Z,81.98
2023-02-16T08:18:45.373Z,82.41
2023-02-16T08:21:15.620Z,81.44
2023-02-16T08:23:47.421Z,81.63
2023-02-16T08:26:17.415Z,82.78
2023-02-16T08:28:46.890Z,81.63
2023-02-16T08:31:15.046Z,82.29
2023-02-16T08:33:42.810Z,82.74
2023-02-16T08:36:19.281Z,83.52
2023-02-16T08:38:50.125Z,83.75
2023-02-16T08:41:17.994Z,83.58
2023-02-16T08:43:45.784Z,83.45
2023-02-16T08:46:13.427Z,83.22
2023-02-16T08:48:41.142Z,82.57
2023-02-16T08:51:09.882Z,82.79
2023-02-16T08:53:38.900Z,82.28
2023-02-16T08:56:07.145Z,82.79
2023-02-16T08:58:35.044Z,83.00
2023-02-16T09:01:06.139Z,82.87
2023-02-16T09:03:33.925Z,83.24
2023-02-16T09:06:03.976Z,83.75
2023-02-16T09:08:32.838Z,83.24
2023-02-16T09:11:04.387Z,82.58
2023-02-16T09:13:34.031Z,82.26
2023-02-16T09:16:04.259Z,81.96
2023-02-16T09:18:33.102Z,80.84
2023-02-16T09:21:06.816Z,80.92
2023-02-16T09:23:35.975Z,80.99
2023-02-16T09:26:07.346Z,81.31
2023-02-16T09:28:35.929Z,80.35
2023-02-16T09:31:11.540Z,80.96
2023-02-16T09:33:40.061Z,81.17
2023-02-16T09:36:09.134Z,80.64
2023-02-16T09:38:37.750Z,80.15
2023-02-16T09:41:16.711Z,80.13
2023-02-16T09:43:50.650Z,80.61
2023-02-16T09:46:22.684Z,80.66
2023-02-16T09:48:51.210Z,80.15
2023-02-16T09:51:29.400Z,79.70
2023-02-16T09:54:06.625Z,79.60
2023-02-16T09:56:41.149Z,78.32
2023-02-16T09:59:15.876Z,76.61
2023-02-16T10:01:48.868Z,77.19
2023-02-16T10:04:31.963Z,77.69
2023-02-16T10:07:13.585Z,77.40
2023-02-16T10:09:48.468Z,78.57
2023-02-16T10:12:22.176Z,78.49
2023-02-16T10:14:52.439Z,76.69
2023-02-16T10:17:28.372Z,75.68
2023-02-16T10:20:00.716Z,75.64
2023-02-16T10:22:33.623Z,75.36
2023-02-16T10:25:05.754Z,75.09
2023-02-16T10:27:39.938Z,75.17
2023-02-16T10:30:15.232Z,75.51
2023-02-16T10:32:58.678Z,75.18
2023-02-16T10:35:39.710Z,75.53
2023-02-16T10:38:15.784Z,75.49
2023-02-16T10:40:53.600Z,75.35
2023-02-16T10:43:30.934Z,75.54
2023-02-16T10:46:00.128Z,75.87
2023-02-16T10:48:27.946Z,75.61
2023-02-16T10:51:02.082Z,73.22
2023-02-16T10:53:38.167Z,69.67
2023-02-16T10:56:26.327Z,69.45
2023-02-16T10:58:57.187Z,70.21
2023-02-16T11:01:38.343Z,71.55
2023-02-16T11:04:06.299Z,71.46
2023-02-16T11:06:36.528Z,70.23
2023-02-16T11:09:06.717Z,68.87
2023-02-16T11:11:38.498Z,65.32
2023-02-16T11:14:19.688Z,60.73
2023-02-16T11:16:47.958Z,59.11
2023-02-16T11:19:22.761Z,55.24
2023-02-16T11:21:52.334Z,51.42
2023-02-16T11:24:27.768Z,48.59
2023-02-16T11:27:04.360Z,49.02
2023-02-16T11:29:34.230Z,49.95
2023-02-16T11:32:07.355Z,48.83
2023-02-16T11:34:37.171Z,49.01
2023-02-16T11:37:14.716Z,49.87
2023-02-16T11:39:50.425Z,50.41
2023-02-16T11:42:32.156Z,52.22
2023-02-16T11:45:02.734Z,52.92
2023-02-16T11:47:33.174Z,54.26
2023-02-16T11:50:20.199Z,56.55
2023-02-16T11:52:49.734Z,58.40
2023-02-16T11:55:26.833Z,60.15
2023-02-16T11:57:56.963Z,61.79
2023-02-16T12:00:27.542Z,61.51
2023-02-16T12:03:30.422Z,61.64
2023-02-16T12:06:12.643Z,63.06
2023-02-16T12:08:58.098Z,63.77
2023-02-16T12:11:37.788Z,65.05
2023-02-16T12:14:20.944Z,67.60
2023-02-16T12:16:56.651Z,68.49
2023-02-16T12:19:40.822Z,68.25
2023-02-16T12:22:21.281Z,67.81
2023-02-16T12:24:59.129Z,65.73
2023-02-16T12:27:34.420Z,64.67
2023-02-16T12:30:09.781Z,63.31
2023-02-16T12:32:54.278Z,62.14
2023-02-16T12:35:47.075Z,63.63
2023-02-16T12:38:26.869Z,63.67
2023-02-16T12:41:08.074Z,63.44
2023-02-16T12:43:40.165Z,64.11
2023-02-16T12:46:15.708Z,63.42
2023-02-16T12:48:51.509Z,63.32
2023-02-16T12:51:23.838Z,63.54
2023-02-16T12:54:00.520Z,64.67
2023-02-16T12:56:32.706Z,65.92
2023-02-16T12:59:16.745Z,65.15
2023-02-16T13:01:45.810Z,64.36
2023-02-16T13:04:22.602Z,62.60
2023-02-16T13:06:57.944Z,62.33
2023-02-16T13:09:35.980Z,61.70
2023-02-16T13:12:12.533Z,62.94
2023-02-16T13:14:44.896Z,63.84
2023-02-16T13:17:17.530Z,64.73
2023-02-16T13:19:48.407Z,64.80
2023-02-16T13:22:39.637Z,64.44
2023-02-16T13:25:40.767Z,66.44
2023-02-16T13:28:28.121Z,67.63
2023-02-16T13:31:12.490Z,67.40
2023-02-16T13:33:56.853Z,67.56
2023-02-16T13:37:00.521Z,67.69
2023-02-16T13:40:15.762Z,67.70
2023-02-16T13:43:06.610Z,68.53
2023-02-16T13:45:40.713Z,68.21
2023-02-16T13:48:16.097Z,68.52
2023-02-16T13:50:44.274Z,68.66
2023-02-16T13:53:19.202Z,68.45
2023-02-16T13:55:48.964Z,68.53
2023-02-16T13:58:32.934Z,66.63
2023-02-16T14:01:43.009Z,67.72
2023-02-16T14:04:35.276Z,65.75
2023-02-16T14:07:35.778Z,66.75
2023-02-16T14:10:03.624Z,67.59
2023-02-16T14:12:36.084Z,67.70
2023-02-16T14:15:05.389Z,68.33
2023-02-16T14:17:35.983Z,68.87
2023-02-16T14:20:09.035Z,67.74
2023-02-16T14:22:48.573Z,68.78
2023-02-16T14:25:48.570Z,69.74
2023-02-16T14:29:09.418Z,69.57
2023-02-16T14:31:46.481Z,68.35
2023-02-16T14:34:24.185Z,70.67
2023-02-16T14:37:29.532Z,71.17
2023-02-16T14:40:08.671Z,70.63
2023-02-16T14:42:37.178Z,71.89
2023-02-16T14:45:22.216Z,71.13
2023-02-16T14:47:59.987Z,70.85
2023-02-16T14:50:41.998Z,71.37
2023-02-16T14:53:49.341Z,72.91
2023-02-16T14:56:35.155Z,74.37
2023-02-16T14:59:12.299Z,74.13
2023-02-16T15:01:41.931Z,74.34
2023-02-16T15:04:11.273Z,74.50
2023-02-16T15:06:43.983Z,74.66
2023-02-16T15:09:19.080Z,72.50
2023-02-16T15:12:09.625Z,71.95
2023-02-16T15:14:43.709Z,73.48
2023-02-16T15:17:18.814Z,72.23
2023-02-16T15:19:46.750Z,72.24
2023-02-16T15:22:23.428Z,72.77
2023-02-16T15:24:59.640Z,72.19
2023-02-16T15:27:29.016Z,72.00
2023-02-16T15:30:05.623Z,71.70
2023-02-16T15:32:33.723Z,71.72
2023-02-16T15:35:11.079Z,72.26
2023-02-16T15:37:40.506Z,72.37
2023-02-16T15:40:25.364Z,72.25
2023-02-16T15:42:55.993Z,72.43
2023-02-16T15:45:35.270Z,72.25
2023-02-16T15:48:18.299Z,72.54
2023-02-16T15:50:46.645Z,72.10
2023-02-16T15:53:16.533Z,72.93
2023-02-16T15:55:46.872Z,72.63
2023-02-16T15:58:16.682Z,72.66
2023-02-16T16:00:45.957Z,73.21
2023-02-16T16:03:17.582Z,73.71
2023-02-16T16:05:56.992Z,72.94
2023-02-16T16:08:29.168Z,73.50
2023-02-16T16:10:57.237Z,73.30
2023-02-16T16:13:27.585Z,74.85
2023-02-16T16:16:02.118Z,73.43
2023-02-16T16:18:41.285Z,73.59
2023-02-16T16:21:25.197Z,75.57
2023-02-16T16:24:03.529Z,74.20
2023-02-16T16:26:35.506Z,73.77
2023-02-16T16:29:03.610Z,75.11
2023-02-16T16:31:40.631Z,75.69
2023-02-16T16:34:10.642Z,76.19
2023-02-16T16:36:45.556Z,75.06
2023-02-16T16:39:25.683Z,74.32
2023-02-16T16:42:21.568Z,74.64
2023-02-16T16:44:59.589Z,75.72
2023-02-16T16:47:31.368Z,74.85
2023-02-16T16:50:01.621Z,76.67
2023-02-16T16:52:34.770Z,77.33
2023-02-16T16:55:22.093Z,77.34
2023-02-16T16:57:51.682Z,77.58
2023-02-16T17:00:21.148Z,76.89
2023-02-16T17:02:48.905Z,77.77
2023-02-16T17:05:16.871Z,77.94
2023-02-16T17:07:48.857Z,76.83
2023-02-16T17:10:19.195Z,78.53
2023-02-16T17:12:48.849Z,79.58
2023-02-16T17:15:34.970Z,78.34
2023-02-16T17:18:03.073Z,79.14
2023-02-16T17:20:30.761Z,80.29
2023-02-16T17:23:04.320Z,79.22
2023-02-16T17:25:35.249Z,79.72
2023-02-16T17:28:03.652Z,80.17
2023-02-16T17:30:31.866Z,81.00
2023-02-16T17:33:00.017Z,80.70
2023-02-16T17:35:28.366Z,82.04
2023-02-16T17:37:56.063Z,80.56
2023-02-16T17:40:25.438Z,81.71
2023-02-16T17:42:54.657Z,81.72
2023-02-16T17:45:23.141Z,79.47
2023-02-16T17:47:53.031Z,80.50
2023-02-16T17:50:21.434Z,80.25
2023-02-16T17:52:49.133Z,80.04
2023-02-16T17:55:16.991Z,80.19
2023-02-16T17:57:44.654Z,81.40
2023-02-16T18:00:19.553Z,82.13
2023-02-16T18:02:47.591Z,82.29
2023-02-16T18:05:15.389Z,83.01
2023-02-16T18:07:43.154Z,82.45
2023-02-16T18:10:18.646Z,82.54
2023-02-16T18:12:46.319Z,82.33
2023-02-16T18:15:15.316Z,81.66
2023-02-16T18:17:42.908Z,81.07
2023-02-16T18:20:15.877Z,80.59
2023-02-16T18:22:43.593Z,81.35
2023-02-16T18:25:11.496Z,81.82
2023-02-16T18:27:39.319Z,82.53
2023-02-16T18:30:08.739Z,81.44
2023-02-16T18:32:38.201Z,80.68
2023-02-16T18:35:06.859Z,81.42
2023-02-16T18:37:35.034Z,81.45
2023-02-16T18:40:02.843Z,82.26
2023-02-16T18:42:30.595Z,84.00
2023-02-16T18:44:58.264Z,82.83
2023-02-16T18:47:25.928Z,83.14
2023-02-16T18:49:56.264Z,82.69
2023-02-16T18:52:24.550Z,81.27
2023-02-16T18:54:52.501Z,81.25
2023-02-16T18:57:20.276Z,81.52
2023-02-16T18:59:48.042Z,81.29
2023-02-16T19:02:16.071Z,80.58
2023-02-16T19:04:43.833Z,79.42
2023-02-16T19:07:12.828Z,78.65
2023-02-16T19:09:40.578Z,79.76
2023-02-16T19:12:08.507Z,79.80
2023-02-16T19:14:36.278Z,80.37
2023-02-16T19:17:03.979Z,80.75
2023-02-16T19:19:32.021Z,80.40
2023-02-16T19:21:59.848Z,78.83
2023-02-16T19:24:28.786Z,78.69
2023-02-16T19:26:56.991Z,79.13
2023-02-16T19:29:24.792Z,79.39
2023-02-16T19:31:52.643Z,79.82
2023-02-16T19:34:20.555Z,79.59
2023-02-16T19:36:48.272Z,80.86
2023-02-16T19:39:15.947Z,80.68
2023-02-16T19:41:45.048Z,79.30
2023-02-16T19:44:14.402Z,79.97
2023-02-16T19:46:42.651Z,79.64
2023-02-16T19:49:14.069Z,80.99
2023-02-16T19:51:41.786Z,80.44
2023-02-16T19:54:09.494Z,80.24
2023-02-16T19:56:40.476Z,80.62
2023-02-16T19:59:10.191Z,79.00
2023-02-16T20:01:37.868Z,78.98
2023-02-16T20:04:05.894Z,79.85
2023-02-16T20:06:37.193Z,79.55
2023-02-16T20:09:04.968Z,79.26
2023-02-16T20:11:32.640Z,79.03
2023-02-16T20:14:00.730Z,79.90
2023-02-16T20:16:30.814Z,80.75
2023-02-16T20:18:59.321Z,80.21
2023-02-16T20:21:29.365Z,79.83
2023-02-16T20:23:59.039Z,81.08
2023-02-16T20:26:29.435Z,81.34
2023-02-16T20:28:57.140Z,81.06
2023-02-16T20:31:30.929Z,79.76
2023-02-16T20:33:59.285Z,79.72
2023-02-16T20:36:27.153Z,79.86
2023-02-16T20:38:55.157Z,79.40
2023-02-16T20:41:23.263Z,79.78
2023-02-16T20:43:51.250Z,80.57
2023-02-16T20:46:19.794Z,81.19
2023-02-16T20:48:50.000Z,82.22
2023-02-16T20:51:17.902Z,82.68
2023-02-16T20:53:45.882Z,82.94
2023-02-16T20:56:16.720Z,82.77
2023-02-16T20:58:46.344Z,82.25
2023-02-16T21:01:15.689Z,83.11
2023-02-16T21:03:43.494Z,83.03
2023-02-16T21:06:12.546Z,82.91
2023-02-16T21:08:40.199Z,83.07
2023-02-16T21:11:08.296Z,83.23
2023-02-16T21:13:36.134Z,83.25
2023-02-16T21:16:04.232Z,82.01
2023-02-16T21:18:32.346Z,81.21
2023-02-16T21:21:01.211Z,80.90
2023-02-16T21:23:30.288Z,80.03
2023-02-16T21:25:59.662Z,80.18
2023-02-16T21:28:28.243Z,79.59
2023-02-16T21:30:56.142Z,79.60
2023-02-16T21:33:23.979Z,79.61
2023-02-16T21:35:51.782Z,80.11
2023-02-16T21:38:19.397Z,79.82
2023-02-16T21:41:05.748Z,80.13
2023-02-16T21:43:33.435Z,80.13
2023-02-16T21:46:01.757Z,79.78
2023-02-16T21:48:47.696Z,79.43
2023-02-16T21:51:18.136Z,79.04
2023-02-16T21:53:46.427Z,78.96
2023-02-16T21:56:26.828Z,79.17
2023-02-16T21:58:54.523Z,79.32
2023-02-16T22:01:24.656Z,79.14
2023-02-16T22:03:56.112Z,78.60
2023-02-16T22:06:25.303Z,78.30
2023-02-16T22:08:53.281Z,77.27
2023-02-16T22:11:21.159Z,76.89
2023-02-16T22:13:54.204Z,76.56
2023-02-16T22:16:22.066Z,76.89
2023-02-16T22:18:49.993Z,76.38
2023-02-16T22:21:17.637Z,76.28
2023-02-16T22:23:45.286Z,76.46
2023-02-16T22:26:21.171Z,76.46
2023-02-16T22:28:50.890Z,76.15
2023-02-16T22:31:19.764Z,75.61
2023-02-16T22:33:47.642Z,75.22
2023-02-16T22:36:15.914Z,75.54
2023-02-16T22:38:44.596Z,74.80
2023-02-16T22:41:13.334Z,75.07
2023-02-16T22:43:41.583Z,74.66
2023-02-16T22:46:14.305Z,74.26
2023-02-16T22:48:42.385Z,73.56
2023-02-16T22:51:13.096Z,73.54
2023-02-16T22:53:41.306Z,72.86
2023-02-16T22:56:13.000Z,72.74
2023-02-16T22:58:40.655Z,71.96
2023-02-16T23:01:14.016Z,70.92
2023-02-16T23:03:42.388Z,70.78
2023-02-16T23:06:14.742Z,70.55
2023-02-16T23:08:42.709Z,70.79
2023-02-16T23:11:10.345Z,70.48
2023-02-16T23:13:38.584Z,70.25
2023-02-16T23:16:07.976Z,70.72
2023-02-16T23:18:37.097Z,69.93
2023-02-16T23:21:08.873Z,70.45
2023-02-16T23:23:36.806Z,69.99
2023-02-16T23:26:07.338Z,69.71
2023-02-16T23:28:35.777Z,69.58
2023-02-16T23:31:03.880Z,69.61
2023-02-16T23:33:31.675Z,69.50
2023-02-16T23:36:00.790Z,69.53
2023-02-16T23:38:28.610Z,69.42
2023-02-16T23:40:57.917Z,69.75
2023-02-16T23:43:26.087Z,69.38
2023-02-16T23:45:54.546Z,69.49
2023-02-16T23:48:23.021Z,69.41
2023-02-16T23:50:51.080Z,69.63
2023-02-16T23:53:21.796Z,69.26
2023-02-16T23:55:58.136Z,69.38
2023-02-16T23:58:27.311Z,69.28
